Time;durP1;ratioP1;P1;durP2;ratioP2;P2;SDS_P1;SDS_P2;PMS_P1;PMS_P2;Temp;Humidity;BMP_temperature;BMP_pressure;BME280_temperature;BME280_humidity;BME280_pressure;Samples;Min_cycle;Max_cycle;Signal;HPM_P1;HPM_P2
2022/11/02 00:01:25;;;;;;;16.13;4.03;;;12.80;99.90;;;;;;4937593;29;20059;-70
2022/11/02 00:03:51;;;;;;;9.02;3.83;;;12.80;99.90;;;;;;4932661;29;20127;-70
2022/11/02 00:06:16;;;;;;;14.27;3.50;;;12.80;99.90;;;;;;4935624;29;20182;-70
2022/11/02 00:08:42;;;;;;;10.70;3.78;;;12.80;99.90;;;;;;4937412;29;20126;-73
2022/11/02 00:11:08;;;;;;;13.38;3.58;;;12.80;99.90;;;;;;4937812;29;20039;-70
2022/11/02 00:13:39;;;;;;;13.05;4.68;;;12.80;99.90;;;;;;4933612;29;20139;-70
2022/11/02 00:16:09;;;;;;;11.35;4.03;;;12.80;99.90;;;;;;4933692;29;20063;-72
2022/11/02 00:18:36;;;;;;;10.18;3.67;;;12.80;99.90;;;;;;4936522;29;20419;-70
2022/11/02 00:21:03;;;;;;;16.00;4.28;;;12.70;99.90;;;;;;4943007;29;20055;-70
2022/11/02 00:23:30;;;;;;;7.45;3.40;;;12.80;99.90;;;;;;4935394;29;20743;-70
2022/11/02 00:25:57;;;;;;;15.23;4.43;;;12.80;99.90;;;;;;4936916;29;20411;-70
2022/11/02 00:28:22;;;;;;;16.70;4.65;;;12.70;99.90;;;;;;4936018;29;20129;-70
2022/11/02 00:30:48;;;;;;;17.23;5.22;;;12.70;99.90;;;;;;4935389;29;20091;-70
2022/11/02 00:33:14;;;;;;;14.77;3.90;;;12.80;99.90;;;;;;4934983;29;20109;-70
2022/11/02 00:35:41;;;;;;;11.57;3.75;;;12.60;99.90;;;;;;4935915;29;20058;-70
2022/11/02 00:38:06;;;;;;;12.57;3.50;;;12.60;99.90;;;;;;4936580;29;20124;-70
2022/11/02 00:40:32;;;;;;;10.82;3.92;;;12.60;99.90;;;;;;4936251;29;20064;-70
2022/11/02 00:42:58;;;;;;;13.73;4.30;;;12.60;99.90;;;;;;4937096;29;20097;-70
2022/11/02 00:45:23;;;;;;;13.85;3.58;;;12.50;99.90;;;;;;4935981;29;20480;-70
2022/11/02 00:47:50;;;;;;;10.85;3.33;;;12.60;99.90;;;;;;4936835;29;20505;-70
2022/11/02 00:50:16;;;;;;;20.48;4.07;;;12.50;99.90;;;;;;4936053;29;20206;-70
2022/11/02 00:52:41;;;;;;;27.98;4.05;;;12.50;99.90;;;;;;4936047;29;20103;-70
2022/11/02 00:55:09;;;;;;;18.08;3.97;;;12.40;99.90;;;;;;4934793;28;20449;-70
2022/11/02 00:57:35;;;;;;;12.52;3.20;;;12.40;99.90;;;;;;4933076;29;20051;-69
2022/11/02 01:00:00;;;;;;;12.98;4.38;;;12.40;99.90;;;;;;4933766;29;20060;-70
2022/11/02 01:02:26;;;;;;;15.75;4.05;;;12.40;99.90;;;;;;4934528;29;20421;-70
2022/11/02 01:04:52;;;;;;;9.70;3.95;;;12.30;99.90;;;;;;4934281;29;20048;-70
2022/11/02 01:07:17;;;;;;;13.75;3.65;;;12.30;99.90;;;;;;4934265;29;20132;-70
2022/11/02 01:09:43;;;;;;;15.75;4.13;;;12.30;99.90;;;;;;4934173;29;20066;-70
2022/11/02 01:12:09;;;;;;;10.15;4.55;;;12.20;99.90;;;;;;4932127;29;20062;-70
2022/11/02 01:14:35;;;;;;;15.70;5.07;;;12.10;99.90;;;;;;4932452;29;20040;-70
2022/11/02 01:17:01;;;;;;;15.73;4.90;;;12.10;99.90;;;;;;4934071;29;20051;-71
2022/11/02 01:19:26;;;;;;;14.27;5.30;;;12.10;99.90;;;;;;4933581;29;20054;-70
2022/11/02 01:21:52;;;;;;;13.07;4.60;;;12.10;99.90;;;;;;4934436;29;20123;-70
2022/11/02 01:24:18;;;;;;;13.73;4.97;;;12.00;99.90;;;;;;4933653;29;20066;-70
2022/11/02 01:26:44;;;;;;;21.00;5.57;;;12.00;99.90;;;;;;4934014;29;20473;-70
2022/11/02 01:29:10;;;;;;;17.20;5.60;;;12.00;99.90;;;;;;4931135;29;20071;-70
2022/11/02 01:31:35;;;;;;;23.65;5.35;;;12.00;99.90;;;;;;4931881;29;20052;-70
2022/11/02 01:34:01;;;;;;;15.82;5.45;;;11.90;99.90;;;;;;4933387;29;20103;-70
2022/11/02 01:36:26;;;;;;;15.43;4.72;;;11.90;99.90;;;;;;4932271;29;20083;-70
2022/11/02 01:38:53;;;;;;;9.45;4.50;;;11.80;99.90;;;;;;4932251;29;20062;-70
2022/11/02 01:41:19;;;;;;;26.92;6.28;;;11.80;99.90;;;;;;4932138;29;20047;-70
2022/11/02 01:43:48;;;;;;;17.33;6.38;;;11.90;99.90;;;;;;4930929;29;20469;-70
2022/11/02 01:46:38;;;;;;;21.42;6.05;;;11.90;99.90;;;;;;4930823;29;20048;-70
2022/11/02 01:49:10;;;;;;;17.88;6.43;;;11.90;99.90;;;;;;4931029;29;20086;-70
2022/11/02 01:51:57;;;;;;;19.10;5.90;;;11.90;99.90;;;;;;4932708;29;20052;-70
2022/11/02 01:54:28;;;;;;;21.08;5.65;;;12.00;99.90;;;;;;4932587;29;20490;-70
2022/11/02 01:57:02;;;;;;;18.52;5.63;;;11.90;99.90;;;;;;4931993;29;20133;-70
2022/11/02 01:59:34;;;;;;;15.60;6.10;;;11.90;99.90;;;;;;4931709;29;20456;-70
2022/11/02 02:02:00;;;;;;;20.50;6.65;;;12.10;99.90;;;;;;4929930;29;20134;-70
2022/11/02 02:04:26;;;;;;;26.23;6.55;;;11.80;99.90;;;;;;4932892;29;20142;-70
2022/11/02 02:06:55;;;;;;;20.48;5.80;;;11.80;99.90;;;;;;4931396;29;20044;-70
2022/11/02 02:09:22;;;;;;;23.58;5.47;;;11.80;99.90;;;;;;4931311;29;20062;-70
2022/11/02 02:11:48;;;;;;;24.65;6.10;;;11.80;99.90;;;;;;4932662;29;20039;-70
2022/11/02 02:14:22;;;;;;;19.75;5.22;;;11.80;99.90;;;;;;4933065;29;20055;-69
2022/11/02 02:17:18;;;;;;;17.33;6.22;;;11.80;99.90;;;;;;4932996;29;20066;-69
2022/11/02 02:20:05;;;;;;;22.30;5.13;;;11.70;99.90;;;;;;4923832;29;20051;-70
2022/11/02 02:22:55;;;;;;;17.55;5.95;;;11.70;99.90;;;;;;4921464;29;20083;-69
2022/11/02 02:25:30;;;;;;;24.27;6.60;;;11.70;99.90;;;;;;4932670;29;20147;-69
2022/11/02 02:28:20;;;;;;;20.38;7.18;;;11.70;99.90;;;;;;4928158;29;20106;-70
2022/11/02 02:31:08;;;;;;;18.20;5.65;;;11.60;99.90;;;;;;4932869;29;20068;-70
2022/11/02 02:33:36;;;;;;;17.90;5.68;;;11.70;99.90;;;;;;4932089;29;20099;-70
2022/11/02 02:36:09;;;;;;;15.38;5.45;;;11.70;99.90;;;;;;4929963;29;20119;-69
2022/11/02 02:38:45;;;;;;;17.70;6.13;;;11.70;99.90;;;;;;4931861;29;20094;-70
2022/11/02 02:41:24;;;;;;;17.67;6.35;;;11.70;99.90;;;;;;4930906;29;20043;-69
2022/11/02 02:43:53;;;;;;;17.75;6.10;;;11.70;99.90;;;;;;4932635;29;20465;-69
2022/11/02 02:46:28;;;;;;;21.70;6.25;;;11.60;99.90;;;;;;4932303;29;20051;-70
2022/11/02 02:48:56;;;;;;;25.25;6.05;;;11.80;99.90;;;;;;4930923;29;20054;-69
2022/11/02 02:51:27;;;;;;;8.77;4.28;;;11.70;99.90;;;;;;4933343;29;20051;-70
2022/11/02 02:54:03;;;;;;;14.70;4.45;;;11.70;99.90;;;;;;4929930;29;20051;-70
2022/11/02 02:56:33;;;;;;;18.90;5.45;;;11.70;99.90;;;;;;4932019;29;20051;-69
2022/11/02 02:59:05;;;;;;;16.83;4.50;;;11.60;99.90;;;;;;4931304;29;20055;-69
2022/11/02 03:01:31;;;;;;;14.73;3.92;;;11.60;99.90;;;;;;4930014;29;20054;-69
2022/11/02 03:03:57;;;;;;;8.73;4.68;;;11.60;99.90;;;;;;4930371;29;20046;-69
2022/11/02 03:06:30;;;;;;;15.43;4.75;;;11.60;99.90;;;;;;4930715;29;20051;-70
2022/11/02 03:09:08;;;;;;;13.43;4.95;;;11.60;99.90;;;;;;4929720;29;20130;-69
2022/11/02 03:11:41;;;;;;;11.75;5.10;;;11.60;99.90;;;;;;4930856;29;20055;-69
2022/11/02 03:14:37;;;;;;;11.25;5.30;;;11.60;99.90;;;;;;4930909;29;20067;-69
2022/11/02 03:17:16;;;;;;;16.60;5.25;;;11.60;99.90;;;;;;4929632;29;20071;-69
2022/11/02 03:20:03;;;;;;;19.17;4.63;;;11.50;99.90;;;;;;4928936;29;20082;-69
2022/11/02 03:23:13;;;;;;;20.52;4.85;;;11.50;99.90;;;;;;4929320;29;20048;-69
2022/11/02 03:26:11;;;;;;;14.20;3.80;;;11.50;99.90;;;;;;4926746;29;20044;-69
2022/11/02 03:29:02;;;;;;;12.80;4.72;;;11.50;99.90;;;;;;4930702;29;20109;-69
2022/11/02 03:31:55;;;;;;;16.90;5.63;;;11.40;99.90;;;;;;4929694;29;20122;-69
2022/11/02 03:34:27;;;;;;;21.25;5.32;;;11.40;99.90;;;;;;4937574;29;20513;-68
2022/11/02 03:37:20;;;;;;;12.45;5.03;;;11.30;99.90;;;;;;4930559;29;20040;-69
2022/11/02 03:39:53;;;;;;;11.68;3.85;;;11.30;99.90;;;;;;4929444;29;20047;-69
2022/11/02 03:42:24;;;;;;;11.27;3.53;;;11.30;99.90;;;;;;4928281;29;20044;-69
2022/11/02 03:44:57;;;;;;;26.38;3.55;;;11.30;99.90;;;;;;4940855;29;20118;-69
2022/11/02 03:47:25;;;;;;;9.65;2.88;;;11.20;99.90;;;;;;4930914;29;20043;-69
2022/11/02 03:49:53;;;;;;;9.02;2.70;;;11.20;99.90;;;;;;4927616;29;20051;-69
2022/11/02 03:52:27;;;;;;;14.30;3.05;;;11.10;99.90;;;;;;4944123;28;20163;-69
2022/11/02 03:55:10;;;;;;;9.73;2.88;;;11.00;99.90;;;;;;4928710;29;20047;-68
2022/11/02 03:57:44;;;;;;;13.27;3.38;;;11.00;99.90;;;;;;4929154;29;20056;-69
2022/11/02 04:00:17;;;;;;;21.30;3.25;;;11.00;99.90;;;;;;4928945;29;20127;-68
2022/11/02 04:02:47;;;;;;;7.72;2.40;;;10.90;99.90;;;;;;4930039;29;20048;-69
2022/11/02 04:05:13;;;;;;;26.13;4.43;;;10.90;99.90;;;;;;4930244;29;20412;-69
2022/11/02 04:10:26;;;;;;;15.02;2.67;;;10.80;99.90;;;;;;4930114;29;20051;-69
2022/11/02 04:15:35;;;;;;;7.80;2.95;;;10.70;99.90;;;;;;4928672;29;20051;-69
2022/11/02 04:20:49;;;;;;;10.05;3.47;;;10.70;99.90;;;;;;4929625;29;20064;-69
2022/11/02 04:26:00;;;;;;;11.00;2.97;;;10.60;99.90;;;;;;4930128;29;20059;-69
2022/11/02 04:28:26;;;;;;;13.30;3.72;;;10.60;99.90;;;;;;4918303;29;20087;-69
2022/11/02 04:30:51;;;;;;;15.77;2.90;;;10.50;99.90;;;;;;4929248;29;20055;-69
2022/11/02 04:33:32;;;;;;;9.98;4.40;;;10.60;99.90;;;;;;4932588;29;20063;-69
2022/11/02 04:36:00;;;;;;;7.45;3.25;;;10.60;99.90;;;;;;4944786;29;20126;-69
2022/11/02 04:38:40;;;;;;;12.93;3.25;;;10.50;99.90;;;;;;4928512;29;20060;-69
2022/11/02 04:43:59;;;;;;;13.15;3.60;;;10.70;99.90;;;;;;4934018;29;20059;-69
2022/11/02 04:46:27;;;;;;;10.40;4.78;;;10.60;99.90;;;;;;4932985;29;20084;-69
2022/11/02 04:48:53;;;;;;;9.13;3.72;;;10.60;99.90;;;;;;4931475;29;20604;-69
2022/11/02 04:51:19;;;;;;;22.58;3.95;;;10.70;99.90;;;;;;4932086;29;20039;-69
2022/11/02 04:53:47;;;;;;;7.97;3.25;;;10.70;99.90;;;;;;4933435;29;20047;-69
2022/11/02 04:56:13;;;;;;;13.27;4.45;;;10.70;99.90;;;;;;4933191;29;20524;-69
2022/11/02 04:58:39;;;;;;;12.45;3.72;;;10.70;99.90;;;;;;4932251;29;20440;-69
2022/11/02 05:01:11;;;;;;;12.85;3.97;;;10.70;99.90;;;;;;4933150;29;20102;-69
2022/11/02 05:03:36;;;;;;;18.13;4.72;;;10.80;99.90;;;;;;4930979;29;20048;-69
2022/11/02 05:06:02;;;;;;;13.25;4.07;;;10.80;99.90;;;;;;4932138;29;20146;-69
2022/11/02 05:08:28;;;;;;;17.42;4.82;;;10.80;99.90;;;;;;4934739;29;20062;-69
2022/11/02 05:10:55;;;;;;;16.98;4.93;;;10.90;99.90;;;;;;4944482;29;20044;-69
2022/11/02 05:13:25;;;;;;;11.90;4.10;;;10.90;99.90;;;;;;4932738;29;20055;-69
2022/11/02 05:15:54;;;;;;;16.10;4.25;;;10.90;99.90;;;;;;4932488;29;20060;-69
2022/11/02 05:18:20;;;;;;;12.48;3.92;;;11.00;99.90;;;;;;4930896;29;20485;-69
2022/11/02 05:20:55;;;;;;;13.65;5.32;;;11.00;99.90;;;;;;4932864;29;20051;-68
2022/11/02 05:23:21;;;;;;;10.70;3.53;;;11.00;99.90;;;;;;4931825;29;20051;-69
2022/11/02 05:25:58;;;;;;;15.38;4.68;;;11.10;99.90;;;;;;4932408;29;20413;-69
2022/11/02 05:28:25;;;;;;;14.00;4.45;;;11.30;99.90;;;;;;4926426;29;20044;-69
2022/11/02 05:30:50;;;;;;;16.20;4.80;;;11.10;99.90;;;;;;4931370;29;20111;-69
2022/11/02 05:33:17;;;;;;;13.68;4.22;;;11.10;99.90;;;;;;4932898;29;20094;-69
2022/11/02 05:35:42;;;;;;;13.40;4.25;;;11.10;99.90;;;;;;4931618;29;20047;-68
2022/11/02 05:38:08;;;;;;;32.75;6.68;;;11.10;99.90;;;;;;4931481;29;20051;-69
2022/11/02 05:40:36;;;;;;;28.15;5.00;;;11.20;99.90;;;;;;4931542;29;20500;-69
2022/11/02 05:43:02;;;;;;;;;;;11.10;99.90;;;;;;4948446;28;20076;-69
2022/11/02 05:45:28;;;;;;;17.48;4.88;;;11.10;99.90;;;;;;4933820;29;19927;-68
2022/11/02 05:47:54;;;;;;;25.10;4.70;;;11.10;99.90;;;;;;4948123;29;20412;-68
2022/11/02 05:50:20;;;;;;;17.88;5.03;;;11.10;99.90;;;;;;4933713;29;20255;-69
2022/11/02 05:52:46;;;;;;;20.10;5.32;;;11.10;99.90;;;;;;4931035;29;20047;-68
2022/11/02 05:55:12;;;;;;;20.15;5.40;;;11.10;99.90;;;;;;4931932;29;20054;-69
2022/11/02 05:57:38;;;;;;;23.35;4.40;;;11.20;99.90;;;;;;4931217;29;20048;-68
2022/11/02 06:00:06;;;;;;;13.25;4.22;;;11.30;99.90;;;;;;4932695;29;20181;-69
2022/11/02 06:02:34;;;;;;;23.65;4.97;;;11.10;99.90;;;;;;4931964;29;20539;-69
2022/11/02 06:05:00;;;;;;;17.42;5.07;;;11.00;99.90;;;;;;4930798;29;20054;-69
2022/11/02 06:07:25;;;;;;;15.50;4.57;;;11.10;99.90;;;;;;4931710;29;20464;-68
2022/11/02 06:09:51;;;;;;;10.82;4.95;;;11.00;99.90;;;;;;4946379;29;20079;-69
2022/11/02 06:12:17;;;;;;;14.52;4.80;;;11.20;99.90;;;;;;4930174;29;20050;-68
2022/11/02 06:14:42;;;;;;;17.17;5.10;;;10.90;99.90;;;;;;4934042;29;20049;-68
2022/11/02 06:17:08;;;;;;;17.30;5.40;;;11.00;99.90;;;;;;4934105;29;20101;-68
2022/11/02 06:19:34;;;;;;;26.25;6.18;;;11.30;99.90;;;;;;4931740;29;20052;-69
2022/11/02 06:21:59;;;;;;;18.38;4.88;;;11.00;99.90;;;;;;4931552;29;20082;-69
2022/11/02 06:24:25;;;;;;;23.27;5.18;;;10.90;99.90;;;;;;4931228;29;20062;-69
2022/11/02 06:26:51;;;;;;;19.50;5.78;;;10.90;99.90;;;;;;4932173;29;20527;-68
2022/11/02 06:29:16;;;;;;;22.20;6.32;;;10.90;99.90;;;;;;4931276;29;20051;-67
2022/11/02 06:31:42;;;;;;;21.85;6.50;;;10.80;99.90;;;;;;4931160;29;20111;-67
2022/11/02 06:34:08;;;;;;;24.85;6.63;;;10.80;99.90;;;;;;4936038;29;20035;-68
2022/11/02 06:36:33;;;;;;;19.42;5.97;;;10.80;99.90;;;;;;4931764;29;20036;-68
2022/11/02 06:38:59;;;;;;;23.55;5.13;;;10.80;99.90;;;;;;4930869;29;20454;-68
2022/11/02 06:41:25;;;;;;;13.32;6.75;;;10.80;99.90;;;;;;4931568;29;20114;-68
2022/11/02 06:43:50;;;;;;;21.30;6.78;;;10.70;99.90;;;;;;4929244;29;20051;-68
2022/11/02 06:46:16;;;;;;;25.42;6.75;;;10.70;99.90;;;;;;4930637;29;20050;-68
2022/11/02 06:48:44;;;;;;;16.27;5.63;;;10.70;99.90;;;;;;4931508;29;20110;-68
2022/11/02 06:51:10;;;;;;;;;;;10.70;99.90;;;;;;4932491;29;20484;-68
2022/11/02 06:53:36;;;;;;;27.58;7.07;;;10.70;99.90;;;;;;4930325;29;19933;-68
2022/11/02 06:56:02;;;;;;;26.08;6.53;;;10.60;99.90;;;;;;4930784;29;20040;-68
2022/11/02 06:58:27;;;;;;;21.58;5.63;;;10.60;99.90;;;;;;4931151;29;20039;-68
2022/11/02 07:00:58;;;;;;;16.00;5.57;;;10.60;99.90;;;;;;4930299;29;20127;-68
2022/11/02 07:03:24;;;;;;;23.90;6.93;;;10.70;99.90;;;;;;4929537;29;20052;-68
2022/11/02 07:05:51;;;;;;;25.55;7.38;;;10.60;99.90;;;;;;4931716;29;20576;-68
2022/11/02 07:08:17;;;;;;;14.52;5.78;;;10.70;99.90;;;;;;4938153;29;20051;-68
2022/11/02 07:10:43;;;;;;;14.52;5.53;;;10.70;99.90;;;;;;4931085;29;20052;-68
2022/11/02 07:13:09;;;;;;;14.20;6.28;;;10.70;99.90;;;;;;4931390;29;20055;-68
2022/11/02 07:15:34;;;;;;;20.95;6.55;;;10.70;99.90;;;;;;4929846;29;20095;-68
2022/11/02 07:18:01;;;;;;;27.88;6.50;;;10.80;99.90;;;;;;4930373;29;20166;-68
2022/11/02 07:20:26;;;;;;;16.20;6.32;;;10.80;99.90;;;;;;4926647;29;20059;-68
2022/11/02 07:22:57;;;;;;;16.08;5.72;;;10.80;99.90;;;;;;4929867;29;20071;-68
2022/11/02 07:25:24;;;;;;;18.98;5.85;;;10.90;99.90;;;;;;4930367;29;20039;-68
2022/11/02 07:27:51;;;;;;;21.63;6.35;;;10.90;99.90;;;;;;4929958;29;20485;-68
2022/11/02 07:30:18;;;;;;;23.23;7.32;;;10.90;99.90;;;;;;4928646;29;20071;-68
2022/11/02 07:32:45;;;;;;;22.00;6.55;;;11.00;99.90;;;;;;4923060;29;20032;-69
2022/11/02 07:35:13;;;;;;;20.98;5.60;;;10.90;99.90;;;;;;4927687;29;20046;-69
2022/11/02 07:37:39;;;;;;;20.38;6.28;;;11.40;99.90;;;;;;4927555;29;20044;-69
2022/11/02 07:40:07;;;;;;;25.55;6.93;;;10.90;99.90;;;;;;4930342;29;20047;-69
2022/11/02 07:42:34;;;;;;;16.13;5.63;;;10.90;99.90;;;;;;4930377;29;20143;-68
2022/11/02 07:44:59;;;;;;;28.58;7.75;;;11.00;99.90;;;;;;4929103;29;20122;-68
2022/11/02 07:47:25;;;;;;;28.83;6.97;;;10.90;99.90;;;;;;4928836;29;20066;-69
2022/11/02 07:49:51;;;;;;;42.25;7.13;;;10.90;99.90;;;;;;4944407;28;20405;-69
2022/11/02 07:52:17;;;;;;;16.85;6.30;;;10.90;99.90;;;;;;4929718;29;20056;-69
2022/11/02 07:54:42;;;;;;;17.17;5.00;;;10.90;99.90;;;;;;4927539;29;20130;-69
2022/11/02 07:57:08;;;;;;;19.98;6.13;;;10.80;99.90;;;;;;4930417;29;20059;-69
2022/11/02 07:59:35;;;;;;;27.15;5.53;;;10.80;99.90;;;;;;4929769;29;20397;-68
2022/11/02 08:02:01;;;;;;;30.25;6.10;;;10.90;99.90;;;;;;4928017;29;20112;-68
2022/11/02 08:04:27;;;;;;;18.10;6.38;;;10.80;99.90;;;;;;4929455;29;20044;-69
2022/11/02 08:06:52;;;;;;;22.48;6.53;;;10.80;99.90;;;;;;4933254;29;20050;-69
2022/11/02 08:09:18;;;;;;;13.80;5.80;;;10.80;99.90;;;;;;4932391;29;20138;-69
2022/11/02 08:11:43;;;;;;;19.38;5.88;;;10.80;99.90;;;;;;4934728;29;20047;-68
2022/11/02 08:14:09;;;;;;;17.48;4.38;;;10.90;99.90;;;;;;4930699;29;20108;-69
2022/11/02 08:16:35;;;;;;;19.73;5.82;;;10.90;99.90;;;;;;4932320;29;20481;-69
2022/11/02 08:19:01;;;;;;;16.95;5.60;;;11.00;99.90;;;;;;4931372;29;20066;-69
2022/11/02 08:21:27;;;;;;;14.85;5.30;;;10.90;99.90;;;;;;4931910;29;20047;-69
2022/11/02 08:23:54;;;;;;;18.02;7.45;;;11.00;99.90;;;;;;4931772;29;20039;-69
2022/11/02 08:26:20;;;;;;;20.35;6.47;;;11.00;99.90;;;;;;4937082;29;20127;-69
2022/11/02 08:28:46;;;;;;;25.02;7.30;;;11.00;99.90;;;;;;4931223;29;20057;-69
2022/11/02 08:31:16;;;;;;;20.85;5.72;;;11.00;99.90;;;;;;4930863;29;20060;-69
2022/11/02 08:33:43;;;;;;;12.88;4.30;;;11.10;99.90;;;;;;4950055;28;20126;-69
2022/11/02 08:36:09;;;;;;;21.88;5.18;;;11.00;99.90;;;;;;4930698;29;20103;-69
2022/11/02 08:38:35;;;;;;;17.45;5.07;;;11.20;99.90;;;;;;4931492;29;20453;-69
2022/11/02 08:41:01;;;;;;;21.30;4.68;;;11.20;99.90;;;;;;4930766;29;20091;-69
2022/11/02 08:43:27;;;;;;;20.52;5.03;;;11.20;99.90;;;;;;4929896;29;20047;-69
2022/11/02 08:45:56;;;;;;;25.52;4.65;;;11.30;99.90;;;;;;4931107;29;20416;-69
2022/11/02 08:48:22;;;;;;;19.35;4.88;;;11.20;99.90;;;;;;4945557;28;20094;-69
2022/11/02 08:50:48;;;;;;;25.48;6.78;;;11.30;99.90;;;;;;4946106;28;20048;-69
2022/11/02 08:53:13;;;;;;;19.45;5.15;;;11.30;99.90;;;;;;4931982;29;20104;-69
2022/11/02 08:55:39;;;;;;;17.73;4.97;;;11.40;99.90;;;;;;4932920;29;20044;-69
2022/11/02 08:58:05;;;;;;;18.52;4.72;;;11.40;99.90;;;;;;4931505;29;20047;-69
2022/11/02 09:00:32;;;;;;;21.88;5.80;;;11.40;99.90;;;;;;4932774;29;20051;-69
2022/11/02 09:03:09;;;;;;;21.80;5.35;;;11.50;99.90;;;;;;4932975;29;20056;-69
2022/11/02 09:05:38;;;;;;;22.13;5.63;;;11.60;99.90;;;;;;4933625;29;20131;-69
2022/11/02 09:08:06;;;;;;;17.05;4.32;;;11.70;99.90;;;;;;4931918;29;20056;-70
2022/11/02 09:10:33;;;;;;;20.55;4.18;;;11.80;99.90;;;;;;4932655;29;20084;-69
2022/11/02 09:13:03;;;;;;;20.48;4.80;;;11.90;99.90;;;;;;4919825;29;20142;-69
2022/11/02 09:15:31;;;;;;;17.90;5.10;;;12.00;99.90;;;;;;4928004;29;20202;-69
2022/11/02 09:17:57;;;;;;;9.38;3.85;;;12.00;99.90;;;;;;4930605;29;20055;-70
2022/11/02 09:20:22;;;;;;;8.20;3.67;;;12.10;99.90;;;;;;4931505;29;20048;-70
2022/11/02 09:22:48;;;;;;;20.63;4.22;;;12.10;99.90;;;;;;4932750;29;20050;-70
2022/11/02 09:25:15;;;;;;;11.65;2.63;;;12.20;99.90;;;;;;4933890;29;20047;-70
2022/11/02 09:27:41;;;;;;;13.35;3.60;;;12.30;99.90;;;;;;4929836;29;20075;-70
2022/11/02 09:30:07;;;;;;;13.10;4.82;;;12.30;99.90;;;;;;4930799;29;20127;-70
2022/11/02 09:32:33;;;;;;;6.90;3.20;;;12.50;99.90;;;;;;4931419;29;20059;-69
2022/11/02 09:35:05;;;;;;;15.07;3.65;;;12.50;99.90;;;;;;4940327;29;20047;-70
2022/11/02 09:37:31;;;;;;;16.13;4.13;;;12.60;99.90;;;;;;4931092;29;20052;-69
2022/11/02 09:39:57;;;;;;;12.73;4.20;;;12.70;99.90;;;;;;4930232;29;20054;-70
2022/11/02 09:42:42;;;;;;;14.05;4.65;;;12.70;99.90;;;;;;4931971;29;20052;-70
2022/11/02 09:45:16;;;;;;;14.93;4.43;;;12.90;99.90;;;;;;4931841;29;20139;-70
2022/11/02 09:48:05;;;;;;;17.58;4.15;;;12.90;99.90;;;;;;4946980;29;20052;-69
2022/11/02 09:50:44;;;;;;;22.63;5.32;;;13.00;99.90;;;;;;4912408;29;20475;-70
2022/11/02 09:53:16;;;;;;;15.48;4.05;;;13.00;99.90;;;;;;4921358;29;20051;-70
2022/11/02 09:55:50;;;;;;;18.17;4.05;;;13.10;99.90;;;;;;4932291;29;20087;-70
2022/11/02 09:58:22;;;;;;;7.28;3.95;;;13.20;99.90;;;;;;4932986;29;20705;-70
2022/11/02 10:00:54;;;;;;;17.95;4.22;;;13.30;99.90;;;;;;4928361;29;20162;-70
2022/11/02 10:03:57;;;;;;;10.35;3.10;;;13.30;99.90;;;;;;4929418;29;20047;-69
2022/11/02 10:06:25;;;;;;;11.40;4.00;;;13.50;99.90;;;;;;4945499;28;20044;-69
2022/11/02 10:09:12;;;;;;;10.18;3.50;;;13.40;99.90;;;;;;4945044;29;20155;-69
2022/11/02 10:11:56;;;;;;;8.10;3.70;;;13.50;99.90;;;;;;4934173;29;20040;-69
2022/11/02 10:14:38;;;;;;;11.60;3.30;;;13.50;99.90;;;;;;4928673;29;20050;-70
2022/11/02 10:17:13;;;;;;;9.13;3.47;;;13.60;99.90;;;;;;4944031;29;20052;-70
2022/11/02 10:19:40;;;;;;;10.15;3.38;;;13.80;99.90;;;;;;4929475;29;20094;-70
2022/11/02 10:22:10;;;;;;;10.45;3.75;;;13.70;99.90;;;;;;4945150;29;20066;-70
2022/11/02 10:24:44;;;;;;;8.13;3.50;;;13.80;99.90;;;;;;4928702;29;20162;-70
2022/11/02 10:27:19;;;;;;;7.32;2.67;;;13.90;99.90;;;;;;4929150;29;20547;-70
2022/11/02 10:29:54;;;;;;;15.80;4.10;;;13.90;99.90;;;;;;4928664;29;20043;-70
2022/11/02 10:32:20;;;;;;;20.30;4.63;;;13.90;99.90;;;;;;4935754;29;20109;-69
2022/11/02 10:34:46;;;;;;;11.10;2.97;;;13.80;99.90;;;;;;4932612;29;20044;-69
2022/11/02 10:37:50;;;;;;;15.57;3.75;;;13.70;99.90;;;;;;4931328;29;20468;-69
2022/11/02 10:40:33;;;;;;;10.40;2.50;;;13.80;99.90;;;;;;4929100;29;20547;-69
2022/11/02 10:43:17;;;;;;;13.65;3.22;;;13.80;99.90;;;;;;4923865;29;20099;-69
2022/11/02 10:46:06;;;;;;;18.17;3.80;;;13.80;99.90;;;;;;4926270;29;20556;-69
2022/11/02 10:49:04;;;;;;;16.25;4.32;;;13.90;99.90;;;;;;4932542;29;20079;-68
2022/11/02 10:51:30;;;;;;;8.55;2.72;;;13.80;99.90;;;;;;4923322;29;20052;-68
2022/11/02 10:53:57;;;;;;;17.63;3.55;;;13.70;99.90;;;;;;4930185;29;20047;-69
2022/11/02 10:56:30;;;;;;;14.10;3.50;;;13.80;99.90;;;;;;4929672;29;20047;-68
2022/11/02 10:59:02;;;;;;;15.80;3.65;;;13.90;99.90;;;;;;4930098;29;20055;-68
2022/11/02 11:01:30;;;;;;;14.57;3.40;;;13.90;99.90;;;;;;4929559;29;20044;-68
2022/11/02 11:04:00;;;;;;;18.25;3.72;;;13.90;99.90;;;;;;4930866;29;20118;-69
2022/11/02 11:06:45;;;;;;;12.60;3.88;;;13.90;99.90;;;;;;4929598;29;20060;-69
2022/11/02 11:09:24;;;;;;;15.63;3.80;;;13.80;99.90;;;;;;4926767;29;20049;-69
2022/11/02 11:12:02;;;;;;;17.48;2.95;;;13.70;99.90;;;;;;4929982;29;20054;-69
2022/11/02 11:14:31;;;;;;;14.57;3.35;;;13.60;99.90;;;;;;4931171;29;20040;-69
2022/11/02 11:17:00;;;;;;;12.88;3.80;;;13.70;99.90;;;;;;4927168;29;20059;-68
2022/11/02 11:19:37;;;;;;;11.55;3.47;;;13.40;99.90;;;;;;4943596;29;20062;-68
2022/11/02 11:22:21;;;;;;;9.38;3.65;;;13.40;99.90;;;;;;4928353;29;20058;-69
2022/11/02 11:24:46;;;;;;;9.48;2.80;;;13.40;99.90;;;;;;4941066;29;20047;-68
2022/11/02 11:27:15;;;;;;;27.95;4.22;;;13.40;99.90;;;;;;4925554;29;20519;-68
2022/11/02 11:29:45;;;;;;;;;;;13.40;99.90;;;;;;4930367;29;20048;-69
2022/11/02 11:32:26;;;;;;;14.32;3.58;;;13.30;99.90;;;;;;4930851;29;20454;-68
2022/11/02 11:35:05;;;;;;;12.43;3.45;;;13.30;99.90;;;;;;4923817;29;20091;-69
2022/11/02 11:37:30;;;;;;;12.10;2.75;;;13.40;99.90;;;;;;4919236;29;20087;-69
2022/11/02 11:40:17;;;;;;;10.50;2.42;;;13.50;99.90;;;;;;4930159;29;20098;-69
2022/11/02 11:42:43;;;;;;;8.75;2.13;;;13.50;99.90;;;;;;4919421;29;20052;-68
2022/11/02 11:45:26;;;;;;;29.73;3.15;;;13.50;99.90;;;;;;4929959;29;20048;-68
2022/11/02 11:47:58;;;;;;;10.82;2.72;;;13.50;99.90;;;;;;4922456;29;20052;-68
2022/11/02 11:50:23;;;;;;;16.58;3.50;;;13.60;99.90;;;;;;4928895;29;20527;-68
2022/11/02 11:53:21;;;;;;;17.58;3.28;;;13.60;99.90;;;;;;4929173;29;20039;-68
2022/11/02 11:55:51;;;;;;;8.93;2.53;;;13.70;99.90;;;;;;4927036;29;20064;-68
2022/11/02 11:58:29;;;;;;;13.90;2.47;;;13.70;99.90;;;;;;4932385;29;20052;-68
2022/11/02 12:01:19;;;;;;;11.82;3.08;;;13.70;99.90;;;;;;4930540;29;20555;-68
2022/11/02 12:04:02;;;;;;;12.60;2.67;;;13.70;99.90;;;;;;4928757;29;20044;-69
2022/11/02 12:06:41;;;;;;;12.30;5.55;;;13.80;99.90;;;;;;4926330;29;20103;-70
2022/11/02 12:09:43;;;;;;;8.73;2.70;;;13.50;99.90;;;;;;4926845;29;20142;-70
2022/11/02 12:12:21;;;;;;;9.65;3.25;;;13.50;99.90;;;;;;4926724;29;20058;-70
2022/11/02 12:14:52;;;;;;;8.75;2.72;;;13.60;99.90;;;;;;4927721;29;20051;-70
2022/11/02 12:17:37;;;;;;;15.23;4.13;;;13.70;99.90;;;;;;4926344;29;20050;-68
2022/11/02 12:20:28;;;;;;;13.73;4.10;;;13.80;99.90;;;;;;4922370;29;20044;-69
2022/11/02 12:23:12;;;;;;;36.42;4.13;;;13.90;99.90;;;;;;4929011;29;20398;-68
2022/11/02 12:25:50;;;;;;;13.88;3.08;;;14.10;99.90;;;;;;4929340;29;20051;-68
2022/11/02 12:28:25;;;;;;;12.23;2.80;;;14.20;99.90;;;;;;4929504;29;20616;-68
2022/11/02 12:31:00;;;;;;;10.60;3.00;;;14.20;99.90;;;;;;4928020;29;20051;-68
2022/11/02 12:33:53;;;;;;;10.27;3.03;;;14.20;99.90;;;;;;4921938;29;20124;-68
2022/11/02 12:36:52;;;;;;;13.95;3.33;;;14.10;99.90;;;;;;4929248;29;20119;-68
2022/11/02 12:39:59;;;;;;;14.75;2.85;;;14.00;99.90;;;;;;4928428;29;20127;-68
2022/11/02 12:42:32;;;;;;;17.23;3.63;;;13.90;99.90;;;;;;4926586;29;20053;-69
2022/11/02 12:45:19;;;;;;;13.20;2.55;;;13.80;99.90;;;;;;4929778;29;20409;-69
2022/11/02 12:47:57;;;;;;;10.48;2.95;;;13.80;99.90;;;;;;4929485;29;20814;-69
2022/11/02 12:50:26;;;;;;;;;;;13.80;99.90;;;;;;4932407;29;20056;-69
2022/11/02 12:53:49;;;;;;;11.02;2.67;;;13.90;99.90;;;;;;4933930;29;19985;-69
2022/11/02 12:56:27;;;;;;;16.83;3.20;;;14.10;99.90;;;;;;4910919;29;20066;-69
2022/11/02 12:58:54;;;;;;;10.32;3.40;;;14.10;99.90;;;;;;4932201;29;20071;-69
2022/11/02 13:01:39;;;;;;;13.38;3.28;;;14.10;99.90;;;;;;4932455;29;20514;-69
2022/11/02 13:04:16;;;;;;;8.93;2.15;;;14.30;99.90;;;;;;4920964;29;20056;-69
2022/11/02 13:06:48;;;;;;;14.00;2.85;;;14.40;99.90;;;;;;4928623;29;20055;-69
2022/11/02 13:09:30;;;;;;;9.35;3.92;;;14.50;99.90;;;;;;4933098;29;20058;-69
2022/11/02 13:12:01;;;;;;;12.20;2.00;;;14.50;99.90;;;;;;4933198;29;20456;-69
2022/11/02 13:14:42;;;;;;;11.82;2.53;;;14.50;99.90;;;;;;4933919;29;20130;-70